Back to Top

Language: 

My Weather Underground Personal Weather Station Historical Data with Graphs...

Delerius Weather Station Historical Data
Daily Summary for October 23, 2017 Units:  English    Metric   Both
« Previous Day
Next Day »
Daily Weekly Monthly Yearly Custom
  High: Low: Average:
Temperature: 62.4 °F 47.1 °F 54.3 °F
Dew Point: 57.1 °F 44.3 °F 51.3 °F
Humidity: 95 % 82 % 90 %
Wind Speed: 10.0 mph 0.0 mph 3.3 mph
Wind Gust: 15.0 mph - -
Wind:- - SSW
Pressure: 29.98 in 29.92 in -
Precipitation: 0.01 in    
Historical Graphs
 
 
Tabular Data for October 23, 2017
Time Temperature Dew Point Pressure Wind Wind Speed Wind Gust Humidity Rainfall Rate (Hourly) solar Conditions
00:02 48.0 °F 44.9 °F 29.97 in West 5.0 mph 9.0 mph 89 % 0.00 in 0 W/m2
00:07 48.2 °F 45.1 °F 29.97 in West 4.0 mph 11.0 mph 89 % 0.00 in 0 W/m2
00:12 48.0 °F 44.9 °F 29.97 in West 3.0 mph 11.0 mph 89 % 0.00 in 0 W/m2
00:17 48.0 °F 44.9 °F 29.97 in West 2.0 mph 7.0 mph 89 % 0.00 in 0 W/m2
00:22 47.8 °F 44.8 °F 29.97 in West 3.0 mph 7.0 mph 89 % 0.00 in 0 W/m2
00:27 47.8 °F 44.8 °F 29.97 in West 3.0 mph 7.0 mph 89 % 0.00 in 0 W/m2
00:33 47.8 °F 44.8 °F 29.97 in West 2.0 mph 7.0 mph 89 % 0.00 in 0 W/m2
00:38 47.7 °F 44.6 °F 29.97 in WSW 1.0 mph 6.0 mph 89 % 0.00 in 0 W/m2
00:43 47.7 °F 44.9 °F 29.97 in WSW 1.0 mph 5.0 mph 90 % 0.00 in 0 W/m2
00:48 47.5 °F 44.4 °F 29.97 in WSW 2.0 mph 5.0 mph 89 % 0.00 in 0 W/m2
00:53 47.1 °F 44.3 °F 29.97 in WSW 3.0 mph 7.0 mph 90 % 0.00 in 0 W/m2
00:58 47.1 °F 44.3 °F 29.97 in West 4.0 mph 8.0 mph 90 % 0.00 in 0 W/m2
01:03 47.1 °F 44.6 °F 29.97 in West 5.0 mph 8.0 mph 91 % 0.00 in 0 W/m2
01:08 47.3 °F 44.8 °F 29.97 in West 5.0 mph 7.0 mph 91 % 0.00 in 0 W/m2
01:13 47.5 °F 45.0 °F 29.97 in West 5.0 mph 7.0 mph 91 % 0.00 in 0 W/m2
01:18 47.5 °F 45.0 °F 29.97 in West 5.0 mph 7.0 mph 91 % 0.00 in 0 W/m2
01:23 47.5 °F 45.3 °F 29.97 in West 4.0 mph 7.0 mph 92 % 0.00 in 0 W/m2
01:28 47.7 °F 45.5 °F 29.97 in West 3.0 mph 6.0 mph 92 % 0.00 in 0 W/m2
01:33 47.8 °F 45.6 °F 29.96 in West 2.0 mph 6.0 mph 92 % 0.00 in 0 W/m2
01:38 48.0 °F 45.8 °F 29.97 in West 2.0 mph 8.0 mph 92 % 0.00 in 0 W/m2
01:43 48.7 °F 46.8 °F 29.96 in West 5.0 mph 9.0 mph 93 % 0.00 in 0 W/m2
01:48 49.3 °F 47.3 °F 29.96 in West 6.0 mph 13.0 mph 93 % 0.00 in 0 W/m2
01:53 49.8 °F 47.6 °F 29.96 in West 7.0 mph 13.0 mph 92 % 0.00 in 0 W/m2
02:03 50.4 °F 47.8 °F 29.97 in West 8.0 mph 14.0 mph 91 % 0.00 in 0 W/m2
02:08 50.5 °F 48.0 °F 29.97 in West 8.0 mph 15.0 mph 91 % 0.00 in 0 W/m2
02:13 50.5 °F 47.7 °F 29.97 in West 9.0 mph 15.0 mph 90 % 0.00 in 0 W/m2
02:18 50.5 °F 47.4 °F 29.97 in West 9.0 mph 14.0 mph 89 % 0.00 in 0 W/m2
02:23 50.5 °F 47.4 °F 29.97 in West 8.0 mph 13.0 mph 89 % 0.00 in 0 W/m2
02:28 50.4 °F 47.2 °F 29.98 in West 7.0 mph 12.0 mph 89 % 0.00 in 0 W/m2
02:33 50.4 °F 46.9 °F 29.98 in West 6.0 mph 11.0 mph 88 % 0.00 in 0 W/m2
02:38 50.2 °F 46.8 °F 29.97 in West 6.0 mph 11.0 mph 88 % 0.00 in 0 W/m2
02:43 50.2 °F 46.8 °F 29.97 in West 6.0 mph 10.0 mph 88 % 0.00 in 0 W/m2
02:48 50.0 °F 46.6 °F 29.97 in West 6.0 mph 10.0 mph 88 % 0.00 in 0 W/m2
02:53 49.8 °F 46.4 °F 29.97 in West 4.0 mph 8.0 mph 88 % 0.00 in 0 W/m2
02:58 49.6 °F 46.2 °F 29.97 in West 5.0 mph 9.0 mph 88 % 0.00 in 0 W/m2
03:03 49.5 °F 46.1 °F 29.97 in West 5.0 mph 9.0 mph 88 % 0.00 in 0 W/m2
03:08 49.5 °F 46.1 °F 29.97 in WNW 5.0 mph 9.0 mph 88 % 0.00 in 0 W/m2
03:13 49.3 °F 45.9 °F 29.97 in West 5.0 mph 9.0 mph 88 % 0.00 in 0 W/m2
03:18 49.5 °F 46.1 °F 29.96 in West 6.0 mph 11.0 mph 88 % 0.00 in 0 W/m2
03:23 49.5 °F 46.1 °F 29.96 in West 7.0 mph 12.0 mph 88 % 0.00 in 0 W/m2
03:28 49.6 °F 45.9 °F 29.96 in West 7.0 mph 12.0 mph 87 % 0.00 in 0 W/m2
03:38 49.5 °F 45.8 °F 29.96 in West 5.0 mph 11.0 mph 87 % 0.00 in 0 W/m2
03:43 49.5 °F 45.8 °F 29.96 in WNW 5.0 mph 11.0 mph 87 % 0.00 in 0 W/m2
03:48 49.3 °F 45.6 °F 29.96 in WNW 5.0 mph 9.0 mph 87 % 0.00 in 0 W/m2
03:53 49.3 °F 45.6 °F 29.96 in West 4.0 mph 9.0 mph 87 % 0.00 in 0 W/m2
03:58 49.1 °F 45.4 °F 29.96 in West 1.0 mph 7.0 mph 87 % 0.00 in 0 W/m2
04:03 49.1 °F 45.4 °F 29.96 in Calm     87 % 0.00 in 0 W/m2
04:08 48.7 °F 45.0 °F 29.96 in Calm     87 % 0.00 in 0 W/m2
04:14 48.6 °F 45.2 °F 29.96 in Calm     88 % 0.00 in 0 W/m2
04:19 48.4 °F 45.0 °F 29.97 in Calm   2.0 mph 88 % 0.00 in 0 W/m2
04:24 48.2 °F 44.8 °F 29.96 in Calm   2.0 mph 88 % 0.00 in 0 W/m2
04:29 48.0 °F 44.9 °F 29.96 in Calm     89 % 0.00 in 0 W/m2
04:34 48.0 °F 44.9 °F 29.97 in Calm     89 % 0.00 in 0 W/m2
04:39 47.8 °F 44.8 °F 29.97 in Calm   1.0 mph 89 % 0.00 in 0 W/m2
04:44 47.8 °F 44.8 °F 29.97 in West 1.0 mph 7.0 mph 89 % 0.00 in 0 W/m2
04:49 47.8 °F 44.8 °F 29.96 in WNW 2.0 mph 7.0 mph 89 % 0.00 in 0 W/m2
04:54 48.0 °F 44.9 °F 29.96 in WNW 2.0 mph 7.0 mph 89 % 0.00 in 0 W/m2
04:59 48.2 °F 45.1 °F 29.96 in WNW 2.0 mph 7.0 mph 89 % 0.00 in 0 W/m2
05:04 48.2 °F 45.1 °F 29.96 in ESE 1.0 mph 5.0 mph 89 % 0.00 in 0 W/m2
05:09 48.0 °F 44.9 °F 29.96 in ESE 1.0 mph 4.0 mph 89 % 0.00 in 0 W/m2
05:14 48.0 °F 44.9 °F 29.96 in ESE 1.0 mph 4.0 mph 89 % 0.00 in 0 W/m2
05:15 48.0 °F 44.9 °F 29.96 in East 1.0 mph 4.0 mph 89 % 0.00 in 0 W/m2
05:20 48.0 °F 44.9 °F 29.96 in East 2.0 mph 4.0 mph 89 % 0.00 in 0 W/m2
05:25 48.0 °F 44.9 °F 29.96 in Calm   3.0 mph 89 % 0.00 in 0 W/m2
05:30 48.0 °F 44.9 °F 29.96 in SE 1.0 mph 5.0 mph 89 % 0.00 in 0 W/m2
05:35 48.0 °F 44.9 °F 29.96 in SE 1.0 mph 5.0 mph 89 % 0.00 in 0 W/m2
05:40 48.0 °F 44.9 °F 29.96 in Calm   2.0 mph 89 % 0.00 in 0 W/m2
05:45 48.0 °F 44.9 °F 29.96 in Calm   2.0 mph 89 % 0.00 in 0 W/m2
05:50 48.0 °F 44.9 °F 29.96 in Calm   3.0 mph 89 % 0.00 in 0 W/m2
05:55 47.8 °F 44.8 °F 29.96 in Calm   3.0 mph 89 % 0.00 in 0 W/m2
06:00 47.7 °F 44.9 °F 29.96 in Calm     90 % 0.00 in 0 W/m2
06:05 47.7 °F 44.9 °F 29.96 in Calm   3.0 mph 90 % 0.00 in 0 W/m2
06:10 47.5 °F 44.7 °F 29.96 in ENE 1.0 mph 3.0 mph 90 % 0.00 in 0 W/m2
06:15 47.7 °F 44.9 °F 29.97 in Calm   2.0 mph 90 % 0.00 in 0 W/m2
06:20 47.7 °F 45.2 °F 29.96 in ENE 1.0 mph 4.0 mph 91 % 0.00 in 0 W/m2
06:25 47.7 °F 45.2 °F 29.96 in ENE 1.0 mph 4.0 mph 91 % 0.00 in 0 W/m2
06:30 47.8 °F 45.3 °F 29.96 in Calm   2.0 mph 91 % 0.00 in 0 W/m2
06:35 47.8 °F 45.3 °F 29.96 in Calm   2.0 mph 91 % 0.00 in 0 W/m2
06:40 48.0 °F 45.5 °F 29.96 in Calm   2.0 mph 91 % 0.00 in 0 W/m2
06:45 48.0 °F 45.5 °F 29.96 in Calm     91 % 0.00 in 0 W/m2
06:50 48.2 °F 45.7 °F 29.96 in Calm     91 % 0.00 in 0 W/m2
06:55 48.4 °F 45.9 °F 29.96 in Calm   3.0 mph 91 % 0.00 in 0 W/m2
07:00 48.4 °F 45.9 °F 29.96 in Calm   3.0 mph 91 % 0.00 in 0 W/m2
07:05 48.6 °F 46.1 °F 29.96 in ENE 1.0 mph 4.0 mph 91 % 0.00 in 0 W/m2
07:10 48.6 °F 46.1 °F 29.95 in ENE 1.0 mph 4.0 mph 91 % 0.00 in 0 W/m2
07:15 48.7 °F 46.2 °F 29.95 in ENE 1.0 mph 2.0 mph 91 % 0.00 in 0 W/m2
07:20 48.7 °F 46.2 °F 29.95 in Calm   2.0 mph 91 % 0.00 in 0 W/m2
07:25 48.7 °F 46.2 °F 29.95 in Calm     91 % 0.00 in 0 W/m2
07:30 48.7 °F 46.2 °F 29.95 in Calm     91 % 0.00 in 0 W/m2
07:31 48.7 °F 46.2 °F 29.95 in Calm     91 % 0.00 in 0 W/m2
07:36 48.7 °F 46.2 °F 29.95 in Calm   4.0 mph 91 % 0.00 in 0 W/m2
07:41 48.6 °F 46.1 °F 29.95 in Calm   4.0 mph 91 % 0.00 in 0 W/m2
07:46 48.6 °F 46.1 °F 29.95 in Calm   4.0 mph 91 % 0.00 in 0 W/m2
07:51 48.6 °F 46.3 °F 29.95 in Calm   2.0 mph 92 % 0.00 in 0 W/m2
07:56 48.7 °F 46.5 °F 29.95 in Calm   2.0 mph 92 % 0.00 in 5 W/m2
08:01 48.7 °F 46.5 °F 29.95 in Calm   2.0 mph 92 % 0.00 in 5 W/m2
08:06 48.9 °F 46.7 °F 29.95 in Calm     92 % 0.00 in 7 W/m2
08:11 48.9 °F 46.7 °F 29.95 in Calm     92 % 0.00 in 12 W/m2
08:16 49.1 °F 46.9 °F 29.95 in Calm   1.0 mph 92 % 0.00 in 16 W/m2
08:21 49.5 °F 47.5 °F 29.95 in Calm   1.0 mph 93 % 0.00 in 23 W/m2
08:26 49.6 °F 47.7 °F 29.95 in Calm   4.0 mph 93 % 0.00 in 42 W/m2
08:31 49.8 °F 47.9 °F 29.95 in SE 1.0 mph 5.0 mph 93 % 0.00 in 44 W/m2
08:36 50.4 °F 48.4 °F 29.95 in SE 1.0 mph 5.0 mph 93 % 0.00 in 46 W/m2
08:41 50.5 °F 48.6 °F 29.95 in ESE 1.0 mph 5.0 mph 93 % 0.01 in 44 W/m2
08:46 50.7 °F 48.8 °F 29.95 in ESE 2.0 mph 5.0 mph 93 % 0.01 in 49 W/m2
08:51 50.9 °F 48.9 °F 29.95 in SSE 2.0 mph 5.0 mph 93 % 0.01 in 58 W/m2
09:01 51.3 °F 49.3 °F 29.96 in SSE 2.0 mph 5.0 mph 93 % 0.01 in 54 W/m2
09:06 51.1 °F 49.1 °F 29.96 in Calm   4.0 mph 93 % 0.01 in 32 W/m2
09:11 50.9 °F 48.9 °F 29.96 in ESE 1.0 mph 4.0 mph 93 % 0.01 in 32 W/m2
09:16 50.7 °F 48.8 °F 29.96 in ESE 1.0 mph 4.0 mph 93 % 0.01 in 28 W/m2
09:21 50.7 °F 48.8 °F 29.95 in Calm   2.0 mph 93 % 0.01 in 33 W/m2
09:32 50.9 °F 49.2 °F 29.95 in Calm     94 % 0.01 in 44 W/m2
09:37 51.1 °F 49.4 °F 29.95 in Calm     94 % 0.00 in 47 W/m2
09:42 51.3 °F 49.6 °F 29.95 in Calm     94 % 0.00 in 44 W/m2
09:47 51.4 °F 49.8 °F 29.95 in SSW 4.0 mph 7.0 mph 94 % 0.00 in 69 W/m2
09:52 51.6 °F 50.2 °F 29.95 in SW 5.0 mph 8.0 mph 95 % 0.00 in 86 W/m2
09:57 52.0 °F 50.6 °F 29.95 in SW 5.0 mph 7.0 mph 95 % 0.00 in 88 W/m2
10:02 52.2 °F 50.5 °F 29.95 in SW 4.0 mph 7.0 mph 94 % 0.00 in 76 W/m2
10:07 52.3 °F 50.7 °F 29.95 in SSW 5.0 mph 7.0 mph 94 % 0.00 in 77 W/m2
10:12 52.5 °F 50.8 °F 29.95 in SW 4.0 mph 6.0 mph 94 % 0.00 in 74 W/m2
10:17 52.7 °F 51.0 °F 29.95 in SSW 6.0 mph 9.0 mph 94 % 0.00 in 72 W/m2
10:22 52.9 °F 51.2 °F 29.95 in SSW 5.0 mph 8.0 mph 94 % 0.00 in 54 W/m2
10:27 52.9 °F 51.2 °F 29.95 in SSW 4.0 mph 8.0 mph 94 % 0.00 in 53 W/m2
10:32 52.9 °F 51.2 °F 29.95 in SSW 4.0 mph 7.0 mph 94 % 0.00 in 63 W/m2
10:37 53.1 °F 51.4 °F 29.95 in SSW 3.0 mph 6.0 mph 94 % 0.00 in 70 W/m2
10:42 53.1 °F 51.4 °F 29.95 in Calm   2.0 mph 94 % 0.00 in 76 W/m2
10:47 53.2 °F 51.3 °F 29.95 in Calm   2.0 mph 93 % 0.00 in 84 W/m2
10:52 53.2 °F 51.3 °F 29.95 in Calm   1.0 mph 93 % 0.00 in 81 W/m2
10:54 53.2 °F 51.3 °F 29.95 in South 1.0 mph 8.0 mph 93 % 0.00 in 77 W/m2
10:59 53.4 °F 51.4 °F 29.95 in Calm   4.0 mph 93 % 0.00 in 100 W/m2
11:04 53.4 °F 51.7 °F 29.95 in SSW 4.0 mph 7.0 mph 94 % 0.00 in 98 W/m2
11:09 53.8 °F 52.1 °F 29.95 in SSW 4.0 mph 11.0 mph 94 % 0.00 in 98 W/m2
11:14 53.8 °F 51.8 °F 29.95 in SSW 5.0 mph 8.0 mph 93 % 0.00 in 84 W/m2
11:19 53.8 °F 51.8 °F 29.95 in SSW 6.0 mph 9.0 mph 93 % 0.00 in 88 W/m2
11:24 54.0 °F 52.0 °F 29.95 in SSW 5.0 mph 9.0 mph 93 % 0.00 in 84 W/m2
11:29 54.0 °F 52.0 °F 29.95 in SSW 6.0 mph 11.0 mph 93 % 0.00 in 77 W/m2
11:34 54.0 °F 52.0 °F 29.95 in South 5.0 mph 6.0 mph 93 % 0.00 in 86 W/m2
11:39 54.1 °F 52.2 °F 29.95 in SW 3.0 mph 7.0 mph 93 % 0.00 in 88 W/m2
11:44 54.1 °F 52.2 °F 29.95 in South 3.0 mph 8.0 mph 93 % 0.00 in 81 W/m2
11:49 54.3 °F 52.3 °F 29.95 in SSW 1.0 mph 4.0 mph 93 % 0.00 in 79 W/m2
11:54 54.3 °F 52.3 °F 29.95 in South 1.0 mph 5.0 mph 93 % 0.00 in 98 W/m2
11:59 54.5 °F 52.5 °F 29.95 in South 1.0 mph 4.0 mph 93 % 0.00 in 109 W/m2
12:04 54.7 °F 52.7 °F 29.95 in SW 2.0 mph 5.0 mph 93 % 0.00 in 79 W/m2
12:09 54.7 °F 52.7 °F 29.95 in South 4.0 mph 8.0 mph 93 % 0.00 in 74 W/m2
12:14 54.9 °F 52.9 °F 29.95 in South 2.0 mph 6.0 mph 93 % 0.00 in 113 W/m2
12:19 54.9 °F 52.9 °F 29.95 in South 3.0 mph 10.0 mph 93 % 0.00 in 135 W/m2
12:24 55.0 °F 53.1 °F 29.95 in SSW 5.0 mph 8.0 mph 93 % 0.00 in 132 W/m2
12:29 55.2 °F 53.2 °F 29.95 in SSW 8.0 mph 14.0 mph 93 % 0.00 in 114 W/m2
12:34 55.6 °F 53.3 °F 29.94 in SSW 6.0 mph 10.0 mph 92 % 0.00 in 130 W/m2
12:39 55.8 °F 53.5 °F 29.94 in SSW 4.0 mph 8.0 mph 92 % 0.00 in 153 W/m2
12:44 55.9 °F 53.6 °F 29.95 in SSW 5.0 mph 7.0 mph 92 % 0.00 in 202 W/m2
12:49 56.3 °F 54.0 °F 29.94 in SSE 3.0 mph 8.0 mph 92 % 0.00 in 202 W/m2
12:54 56.7 °F 54.4 °F 29.94 in SW 2.0 mph 6.0 mph 92 % 0.00 in 190 W/m2
12:59 56.8 °F 54.2 °F 29.94 in SSE 4.0 mph 8.0 mph 91 % 0.00 in 185 W/m2
13:04 57.0 °F 54.1 °F 29.94 in South 7.0 mph 11.0 mph 90 % 0.00 in 318 W/m2
13:09 57.6 °F 55.3 °F 29.94 in SSW 5.0 mph 8.0 mph 92 % 0.00 in 564 W/m2
13:14 58.3 °F 55.4 °F 29.93 in SSW 8.0 mph 12.0 mph 90 % 0.00 in 504 W/m2
13:19 58.6 °F 55.4 °F 29.93 in South 5.0 mph 9.0 mph 89 % 0.00 in 489 W/m2
13:24 59.4 °F 55.8 °F 29.93 in SSW 5.0 mph 8.0 mph 88 % 0.00 in 513 W/m2
13:29 59.7 °F 55.8 °F 29.93 in South 4.0 mph 7.0 mph 87 % 0.00 in 617 W/m2
13:34 60.1 °F 55.9 °F 29.93 in SSW 6.0 mph 12.0 mph 86 % 0.00 in 220 W/m2
13:39 60.1 °F 55.6 °F 29.93 in SW 7.0 mph 10.0 mph 85 % 0.00 in 265 W/m2
13:45 59.7 °F 54.9 °F 29.93 in SSW 4.0 mph 11.0 mph 84 % 0.00 in 200 W/m2
13:50 59.5 °F 55.0 °F 29.93 in SSW 6.0 mph 9.0 mph 85 % 0.00 in 230 W/m2
13:55 59.7 °F 55.2 °F 29.93 in SSW 7.0 mph 10.0 mph 85 % 0.00 in 237 W/m2
14:00 59.7 °F 55.2 °F 29.93 in SW 7.0 mph 11.0 mph 85 % 0.00 in 341 W/m2
14:05 59.9 °F 55.4 °F 29.93 in SW 5.0 mph 8.0 mph 85 % 0.00 in 181 W/m2
14:10 59.7 °F 55.2 °F 29.93 in SW 6.0 mph 8.0 mph 85 % 0.00 in 134 W/m2
14:15 59.5 °F 55.3 °F 29.93 in WSW 7.0 mph 10.0 mph 86 % 0.00 in 146 W/m2
14:20 59.4 °F 54.8 °F 29.93 in SW 10.0 mph 14.0 mph 85 % 0.00 in 149 W/m2
14:25 59.4 °F 55.2 °F 29.93 in SW 7.0 mph 10.0 mph 86 % 0.00 in 190 W/m2
14:30 59.4 °F 55.2 °F 29.93 in SW 6.0 mph 8.0 mph 86 % 0.00 in 155 W/m2
14:35 59.5 °F 55.3 °F 29.93 in WSW 4.0 mph 7.0 mph 86 % 0.00 in 151 W/m2
14:40 59.5 °F 55.3 °F 29.93 in WSW 5.0 mph 7.0 mph 86 % 0.00 in 255 W/m2
14:45 59.5 °F 55.3 °F 29.93 in SSW 6.0 mph 11.0 mph 86 % 0.00 in 146 W/m2
14:50 59.7 °F 55.5 °F 29.93 in South 5.0 mph 7.0 mph 86 % 0.00 in 120 W/m2
14:55 59.7 °F 55.5 °F 29.93 in SSW 5.0 mph 12.0 mph 86 % 0.00 in 128 W/m2
15:00 60.1 °F 55.9 °F 29.93 in SSW 8.0 mph 12.0 mph 86 % 0.00 in 253 W/m2
15:05 60.4 °F 56.2 °F 29.93 in SSW 3.0 mph 8.0 mph 86 % 0.00 in 538 W/m2
15:10 61.3 °F 57.1 °F 29.93 in WSW 4.0 mph 6.0 mph 86 % 0.00 in 508 W/m2
15:15 62.1 °F 56.8 °F 29.93 in SSW 7.0 mph 11.0 mph 83 % 0.00 in 504 W/m2
15:20 62.4 °F 56.9 °F 29.92 in WSW 6.0 mph 11.0 mph 82 % 0.00 in 165 W/m2
15:25 62.2 °F 56.7 °F 29.92 in SSW 5.0 mph 7.0 mph 82 % 0.00 in 158 W/m2
15:30 61.9 °F 56.3 °F 29.92 in SSW 7.0 mph 9.0 mph 82 % 0.00 in 121 W/m2
15:35 61.3 °F 56.1 °F 29.92 in SW 7.0 mph 9.0 mph 83 % 0.00 in 111 W/m2
15:40 61.0 °F 56.1 °F 29.92 in SSW 7.0 mph 10.0 mph 84 % 0.00 in 118 W/m2
15:45 60.6 °F 55.8 °F 29.92 in SSW 6.0 mph 9.0 mph 84 % 0.00 in 123 W/m2
15:50 60.6 °F 56.1 °F 29.93 in SW 6.0 mph 9.0 mph 85 % 0.00 in 174 W/m2
15:55 60.6 °F 56.4 °F 29.93 in SW 5.0 mph 7.0 mph 86 % 0.00 in 100 W/m2
16:00 61.0 °F 56.8 °F 29.93 in WSW 5.0 mph 8.0 mph 86 % 0.00 in 197 W/m2
16:05 61.2 °F 56.6 °F 29.92 in South 8.0 mph 12.0 mph 85 % 0.00 in 292 W/m2
16:10 61.3 °F 56.8 °F 29.92 in SSW 6.0 mph 9.0 mph 85 % 0.00 in 230 W/m2
16:15 61.3 °F 56.8 °F 29.92 in SSW 6.0 mph 10.0 mph 85 % 0.00 in 244 W/m2
16:20 61.2 °F 56.6 °F 29.93 in SSW 6.0 mph 8.0 mph 85 % 0.00 in 200 W/m2
16:25 61.2 °F 56.6 °F 29.92 in SSW 7.0 mph 10.0 mph 85 % 0.00 in 95 W/m2
16:30 61.2 °F 56.6 °F 29.93 in SW 6.0 mph 10.0 mph 85 % 0.00 in 104 W/m2
16:35 61.0 °F 56.4 °F 29.93 in SSW 6.0 mph 9.0 mph 85 % 0.00 in 67 W/m2
16:40 60.8 °F 56.3 °F 29.92 in SSW 5.0 mph 7.0 mph 85 % 0.00 in 39 W/m2
16:45 60.6 °F 56.4 °F 29.92 in South 4.0 mph 8.0 mph 86 % 0.00 in 35 W/m2
16:50 60.4 °F 56.2 °F 29.92 in Calm   2.0 mph 86 % 0.00 in 30 W/m2
16:55 60.4 °F 56.2 °F 29.92 in South 1.0 mph 2.0 mph 86 % 0.00 in 23 W/m2
17:00 60.4 °F 56.2 °F 29.93 in SSE 1.0 mph 5.0 mph 86 % 0.00 in 35 W/m2
17:05 60.4 °F 56.6 °F 29.93 in SSW 5.0 mph 8.0 mph 87 % 0.00 in 19 W/m2
17:10 60.3 °F 56.4 °F 29.93 in SW 4.0 mph 8.0 mph 87 % 0.00 in 42 W/m2
17:15 60.3 °F 56.4 °F 29.93 in SW 6.0 mph 8.0 mph 87 % 0.00 in 37 W/m2
17:20 60.3 °F 56.4 °F 29.92 in SW 6.0 mph 8.0 mph 87 % 0.00 in 26 W/m2
17:30 60.1 °F 56.5 °F 29.92 in SW 6.0 mph 8.0 mph 88 % 0.00 in 9 W/m2
17:35 59.9 °F 56.0 °F 29.92 in SW 4.0 mph 7.0 mph 87 % 0.00 in 7 W/m2
17:40 59.7 °F 56.2 °F 29.92 in SW 2.0 mph 5.0 mph 88 % 0.00 in 5 W/m2
17:45 59.7 °F 56.2 °F 29.92 in SW 2.0 mph 6.0 mph 88 % 0.00 in 5 W/m2
17:51 59.5 °F 56.0 °F 29.92 in SW 2.0 mph 7.0 mph 88 % 0.00 in 0 W/m2
17:56 59.5 °F 56.3 °F 29.92 in SW 2.0 mph 6.0 mph 89 % 0.00 in 0 W/m2
18:01 59.5 °F 56.3 °F 29.93 in WSW 1.0 mph 5.0 mph 89 % 0.00 in 0 W/m2
18:11 59.5 °F 56.3 °F 29.92 in SW 5.0 mph 6.0 mph 89 % 0.00 in 0 W/m2
18:16 59.4 °F 56.1 °F 29.93 in SW 2.0 mph 6.0 mph 89 % 0.00 in 0 W/m2
18:21 59.4 °F 56.1 °F 29.93 in SW 5.0 mph 8.0 mph 89 % 0.00 in 0 W/m2
18:26 59.4 °F 56.1 °F 29.93 in SSW 5.0 mph 10.0 mph 89 % 0.00 in 0 W/m2
18:31 59.4 °F 56.1 °F 29.93 in SSE 3.0 mph 6.0 mph 89 % 0.00 in 0 W/m2
18:36 59.4 °F 56.1 °F 29.93 in SE 5.0 mph 8.0 mph 89 % 0.00 in 0 W/m2
18:41 59.2 °F 55.9 °F 29.93 in SSE 1.0 mph 5.0 mph 89 % 0.00 in 0 W/m2
18:46 59.0 °F 56.1 °F 29.93 in SSE 1.0 mph 5.0 mph 90 % 0.00 in 0 W/m2
18:51 58.8 °F 55.9 °F 29.93 in SE 1.0 mph 4.0 mph 90 % 0.00 in 0 W/m2
18:56 58.8 °F 55.9 °F 29.94 in SE 2.0 mph 5.0 mph 90 % 0.00 in 0 W/m2
19:01 58.6 °F 55.7 °F 29.94 in SSE 2.0 mph 6.0 mph 90 % 0.00 in 0 W/m2
19:06 58.6 °F 55.7 °F 29.94 in SSE 1.0 mph 3.0 mph 90 % 0.00 in 0 W/m2
19:11 58.5 °F 55.8 °F 29.94 in SE 3.0 mph 5.0 mph 91 % 0.00 in 0 W/m2
19:16 58.5 °F 55.8 °F 29.94 in SE 3.0 mph 6.0 mph 91 % 0.00 in 0 W/m2
19:21 58.3 °F 55.7 °F 29.94 in SE 1.0 mph 4.0 mph 91 % 0.00 in 0 W/m2
19:26 58.3 °F 55.7 °F 29.94 in Calm     91 % 0.00 in 0 W/m2
19:31 58.3 °F 55.7 °F 29.94 in SSE 1.0 mph 4.0 mph 91 % 0.00 in 0 W/m2
19:36 58.1 °F 55.5 °F 29.94 in SSE 1.0 mph 4.0 mph 91 % 0.00 in 0 W/m2
19:41 57.9 °F 55.3 °F 29.94 in Calm     91 % 0.00 in 0 W/m2
19:46 57.9 °F 55.3 °F 29.94 in Calm   2.0 mph 91 % 0.00 in 0 W/m2
19:51 57.7 °F 55.4 °F 29.94 in West 2.0 mph 6.0 mph 92 % 0.00 in 0 W/m2
19:56 57.7 °F 55.4 °F 29.94 in Calm   1.0 mph 92 % 0.00 in 0 W/m2
20:01 57.7 °F 55.4 °F 29.93 in SSW 2.0 mph 7.0 mph 92 % 0.00 in 0 W/m2
20:06 57.9 °F 55.9 °F 29.93 in South 4.0 mph 7.0 mph 93 % 0.00 in 0 W/m2
20:11 57.9 °F 55.9 °F 29.93 in SSW 4.0 mph 6.0 mph 93 % 0.00 in 0 W/m2
20:16 57.9 °F 55.9 °F 29.93 in SSW 4.0 mph 7.0 mph 93 % 0.00 in 0 W/m2
20:21 58.1 °F 56.1 °F 29.93 in SSW 4.0 mph 6.0 mph 93 % 0.00 in 0 W/m2
20:26 58.1 °F 56.1 °F 29.93 in WSW 4.0 mph 7.0 mph 93 % 0.00 in 0 W/m2
20:32 58.1 °F 56.1 °F 29.93 in WSW 1.0 mph 5.0 mph 93 % 0.00 in 0 W/m2
20:37 57.9 °F 55.9 °F 29.93 in SW 5.0 mph 7.0 mph 93 % 0.00 in 0 W/m2
20:42 58.1 °F 56.1 °F 29.93 in SSW 6.0 mph 9.0 mph 93 % 0.00 in 0 W/m2
20:47 58.3 °F 56.3 °F 29.93 in SSW 5.0 mph 9.0 mph 93 % 0.00 in 0 W/m2
20:52 58.5 °F 56.4 °F 29.93 in SSW 7.0 mph 9.0 mph 93 % 0.00 in 0 W/m2
20:57 58.5 °F 56.4 °F 29.93 in SSW 7.0 mph 10.0 mph 93 % 0.00 in 0 W/m2
21:02 58.5 °F 56.4 °F 29.94 in SW 6.0 mph 8.0 mph 93 % 0.00 in 0 W/m2
21:07 58.5 °F 56.4 °F 29.93 in SSW 6.0 mph 8.0 mph 93 % 0.00 in 0 W/m2
21:12 58.6 °F 56.3 °F 29.94 in SSW 5.0 mph 7.0 mph 92 % 0.00 in 0 W/m2
21:17 58.5 °F 56.1 °F 29.94 in SW 1.0 mph 2.0 mph 92 % 0.00 in 0 W/m2
21:22 58.5 °F 56.1 °F 29.94 in Calm     92 % 0.00 in 0 W/m2
21:27 58.3 °F 56.0 °F 29.94 in SW 2.0 mph 6.0 mph 92 % 0.00 in 0 W/m2
21:32 58.3 °F 56.0 °F 29.94 in West 4.0 mph 7.0 mph 92 % 0.00 in 0 W/m2
21:37 58.5 °F 56.1 °F 29.94 in WSW 5.0 mph 8.0 mph 92 % 0.00 in 0 W/m2
21:42 58.5 °F 56.1 °F 29.94 in WSW 1.0 mph 4.0 mph 92 % 0.00 in 0 W/m2
21:47 58.5 °F 56.1 °F 29.94 in Calm   2.0 mph 92 % 0.00 in 0 W/m2
21:52 58.5 °F 56.1 °F 29.94 in SW 1.0 mph 5.0 mph 92 % 0.00 in 0 W/m2
21:57 58.5 °F 56.1 °F 29.94 in WSW 4.0 mph 7.0 mph 92 % 0.00 in 0 W/m2
22:02 58.5 °F 55.8 °F 29.94 in SW 3.0 mph 8.0 mph 91 % 0.00 in 0 W/m2
22:07 58.5 °F 55.8 °F 29.94 in WSW 2.0 mph 5.0 mph 91 % 0.00 in 0 W/m2
22:12 58.3 °F 55.7 °F 29.94 in WSW 4.0 mph 7.0 mph 91 % 0.00 in 0 W/m2
22:17 58.5 °F 55.8 °F 29.94 in WSW 5.0 mph 7.0 mph 91 % 0.00 in 0 W/m2
22:22 58.3 °F 55.7 °F 29.95 in West 4.0 mph 6.0 mph 91 % 0.00 in 0 W/m2
22:27 58.5 °F 55.8 °F 29.95 in WSW 5.0 mph 7.0 mph 91 % 0.00 in 0 W/m2
22:32 58.5 °F 55.5 °F 29.95 in West 5.0 mph 8.0 mph 90 % 0.00 in 0 W/m2
22:37 58.5 °F 55.5 °F 29.95 in WSW 4.0 mph 6.0 mph 90 % 0.00 in 0 W/m2
22:42 58.5 °F 55.5 °F 29.95 in WSW 4.0 mph 5.0 mph 90 % 0.00 in 0 W/m2
22:47 58.5 °F 55.5 °F 29.95 in West 5.0 mph 7.0 mph 90 % 0.00 in 0 W/m2
22:52 58.5 °F 55.5 °F 29.96 in West 6.0 mph 8.0 mph 90 % 0.00 in 0 W/m2
22:57 58.5 °F 55.5 °F 29.95 in SW 3.0 mph 5.0 mph 90 % 0.00 in 0 W/m2
23:02 58.5 °F 55.2 °F 29.95 in SSW 5.0 mph 7.0 mph 89 % 0.00 in 0 W/m2
23:07 58.5 °F 55.2 °F 29.95 in SSW 4.0 mph 7.0 mph 89 % 0.00 in 0 W/m2
23:12 58.5 °F 55.2 °F 29.95 in SSW 6.0 mph 9.0 mph 89 % 0.00 in 0 W/m2
23:18 58.5 °F 54.9 °F 29.96 in SSW 6.0 mph 9.0 mph 88 % 0.00 in 0 W/m2
23:23 58.5 °F 54.9 °F 29.96 in SSW 5.0 mph 9.0 mph 88 % 0.00 in 0 W/m2
23:28 58.5 °F 54.9 °F 29.96 in SSW 6.0 mph 9.0 mph 88 % 0.00 in 0 W/m2
23:33 58.5 °F 54.9 °F 29.96 in SW 4.0 mph 8.0 mph 88 % 0.00 in 0 W/m2
23:38 58.3 °F 54.7 °F 29.96 in West 3.0 mph 7.0 mph 88 % 0.00 in 0 W/m2
23:43 58.3 °F 54.7 °F 29.96 in WSW 5.0 mph 7.0 mph 88 % 0.00 in 0 W/m2
23:48 57.9 °F 54.4 °F 29.96 in WSW 5.0 mph 10.0 mph 88 % 0.00 in 0 W/m2
23:53 57.9 °F 54.4 °F 29.96 in SW 6.0 mph 8.0 mph 88 % 0.00 in 0 W/m2
23:58 57.7 °F 54.2 °F 29.96 in WSW 6.0 mph 9.0 mph 88 % 0.00 in 0 W/m2
Delerius-Weather
Compliments of Weather Underground - 2.25 mb

Data updates at regular intervals.